Time;durP1;ratioP1;P1;durP2;ratioP2;P2;SDS_P1;SDS_P2;PMS_P1;PMS_P2;Temp;Humidity;BMP_temperature;BMP_pressure;BME280_temperature;BME280_humidity;BME280_pressure;Samples;Min_cycle;Max_cycle;Signal;HPM_P1;HPM_P2
2022/08/03 00:00:04;;;;;;;3.00;2.22;;;;;;;16.37;100.00;96022.53;1026092;28;20049;-70
2022/08/03 00:00:35;;;;;;;2.67;2.30;;;;;;;16.33;100.00;96018.84;1026711;28;20030;-70
2022/08/03 00:01:05;;;;;;;7.38;2.13;;;;;;;16.35;100.00;96022.78;1022126;28;20114;-72
2022/08/03 00:01:36;;;;;;;2.58;2.10;;;;;;;16.32;100.00;96014.66;1021933;28;20127;-72
2022/08/03 00:02:06;;;;;;;3.28;2.97;;;;;;;16.35;100.00;96017.50;1018271;29;20032;-70
2022/08/03 00:02:37;;;;;;;3.65;2.17;;;;;;;16.34;100.00;96023.88;1022183;29;20035;-69
2022/08/03 00:03:07;;;;;;;2.90;2.35;;;;;;;16.35;100.00;96022.78;1022307;28;20095;-72
2022/08/03 00:03:38;;;;;;;11.40;2.58;;;;;;;16.35;100.00;96016.72;1022311;28;20066;-70
2022/08/03 00:04:09;;;;;;;4.07;2.83;;;;;;;16.35;100.00;96017.50;1022320;28;20106;-72
2022/08/03 00:04:39;;;;;;;14.02;2.67;;;;;;;16.34;100.00;96015.94;1022126;28;20464;-70
2022/08/03 00:05:10;;;;;;;4.60;2.20;;;;;;;16.35;100.00;96020.16;1022558;28;20035;-71
2022/08/03 00:05:40;;;;;;;5.45;2.55;;;;;;;16.35;100.00;96017.50;1026114;28;20066;-73
2022/08/03 00:06:11;;;;;;;6.32;2.60;;;;;;;16.36;100.00;96018.28;1026852;28;20097;-70
2022/08/03 00:06:41;;;;;;;3.67;2.15;;;;;;;16.36;100.00;96018.28;1030238;28;20527;-72
2022/08/03 00:07:12;;;;;;;4.13;2.30;;;;;;;16.36;100.00;96019.06;1030243;28;20125;-70
2022/08/03 00:07:42;;;;;;;5.68;2.20;;;;;;;16.35;100.00;96014.84;1030201;28;20036;-71
2022/08/03 00:08:13;;;;;;;2.95;2.10;;;;;;;16.36;100.00;96018.28;1026078;28;20077;-70
2022/08/03 00:08:43;;;;;;;5.35;2.80;;;;;;;16.35;100.00;96008.78;1028560;28;20129;-70
2022/08/03 00:09:14;;;;;;;1.80;1.70;;;;;;;16.37;100.00;96014.56;1022286;29;20031;-70
2022/08/03 00:09:44;;;;;;;3.53;2.47;;;;;;;16.36;100.00;96015.63;1022154;28;20027;-72
2022/08/03 00:10:15;;;;;;;8.35;2.30;;;;;;;16.34;100.00;96015.16;1026261;28;20500;-70
2022/08/03 00:10:45;;;;;;;6.47;2.50;;;;;;;16.34;100.00;96015.16;1026139;28;20113;-71
2022/08/03 00:11:16;;;;;;;3.10;2.20;;;;;;;16.34;100.00;96012.50;1029523;28;20030;-70
2022/08/03 00:11:46;;;;;;;2.60;2.40;;;;;;;16.33;100.00;96013.56;1026296;28;20848;-70
2022/08/03 00:12:17;;;;;;;3.03;2.20;;;;;;;16.27;100.00;96016.31;1030281;28;20100;-70
2022/08/03 00:12:47;;;;;;;3.83;2.40;;;;;;;16.25;100.00;96013.16;1026078;28;20082;-70
2022/08/03 00:13:18;;;;;;;10.43;3.17;;;;;;;16.27;100.00;96016.31;1030184;28;20602;-70
2022/08/03 00:13:49;;;;;;;5.10;2.65;;;;;;;16.25;100.00;96010.50;1030353;28;20038;-70
2022/08/03 00:14:19;;;;;;;9.25;2.92;;;;;;;16.24;100.00;96018.75;1034268;28;20064;-70
2022/08/03 00:14:50;;;;;;;14.63;3.88;;;;;;;16.23;100.00;96019.81;1029751;28;20030;-70
2022/08/03 00:15:20;;;;;;;13.23;3.35;;;;;;;16.23;100.00;96011.88;1026247;28;20026;-71
2022/08/03 00:15:51;;;;;;;5.38;2.67;;;;;;;16.20;100.00;96015.91;1026136;28;20066;-70
2022/08/03 00:16:23;;;;;;;13.13;2.90;;;;;;;16.22;100.00;96015.59;1026627;28;20142;-71
2022/08/03 00:16:53;;;;;;;9.25;2.90;;;;;;;16.19;100.00;96019.63;1029968;28;20088;-70
2022/08/03 00:17:24;;;;;;;5.13;2.65;;;;;;;16.20;100.00;96020.44;1030202;28;20042;-70
2022/08/03 00:17:54;;;;;;;6.82;2.50;;;;;;;16.19;100.00;96019.63;1030560;28;20030;-71
2022/08/03 00:18:25;;;;;;;3.63;2.90;;;;;;;16.17;100.00;96015.72;1030215;28;20030;-70
2022/08/03 00:18:55;;;;;;;7.13;2.75;;;;;;;16.14;100.00;96017.06;1022219;28;20031;-70
2022/08/03 00:19:26;;;;;;;13.63;2.92;;;;;;;16.14;100.00;96014.44;1022392;28;20043;-71
2022/08/03 00:19:57;;;;;;;6.88;2.83;;;;;;;16.09;100.00;96009.19;1026330;28;20401;-70
2022/08/03 00:20:27;;;;;;;8.60;3.03;;;;;;;16.14;100.00;96022.38;1026087;28;20038;-71
2022/08/03 00:20:58;;;;;;;3.88;2.65;;;;;;;16.12;100.00;96016.56;1026069;28;20030;-70
2022/08/03 00:21:28;;;;;;;5.30;2.60;;;;;;;16.11;100.00;96017.66;1025595;28;20077;-70
2022/08/03 00:21:59;;;;;;;13.52;3.30;;;;;;;16.14;100.00;96021.59;1026164;28;20088;-73
2022/08/03 00:22:29;;;;;;;2.45;2.13;;;;;;;16.12;100.00;96024.50;1026226;28;20065;-70
2022/08/03 00:23:00;;;;;;;5.95;2.78;;;;;;;16.11;100.00;96014.22;1026080;28;20022;-71
2022/08/03 00:23:31;;;;;;;7.22;2.35;;;;;;;16.12;100.00;96024.50;1022374;28;20059;-71
2022/08/03 00:24:01;;;;;;;3.17;2.45;;;;;;;16.10;100.00;96020.59;1026125;28;20023;-70
2022/08/03 00:24:34;;;;;;;14.70;3.70;;;;;;;16.10;100.00;96023.25;1026240;28;20019;-70
2022/08/03 00:25:05;;;;;;;8.23;2.92;;;;;;;16.02;100.00;96009.56;1026488;28;20030;-71
2022/08/03 00:25:36;;;;;;;3.70;2.70;;;;;;;16.08;100.00;96022.75;1029984;28;20711;-71
2022/08/03 00:26:06;;;;;;;21.88;3.70;;;;;;;16.07;100.00;96019.31;1030766;28;20022;-69
2022/08/03 00:26:37;;;;;;;10.77;2.88;;;;;;;16.07;100.00;96021.19;1034178;28;20475;-70
2022/08/03 00:27:07;;;;;;;3.22;2.70;;;;;;;16.06;100.00;96023.00;1025758;28;20121;-71
2022/08/03 00:27:38;;;;;;;8.15;3.13;;;;;;;16.05;100.00;96020.66;1026083;28;20480;-71
2022/08/03 00:28:08;;;;;;;5.95;2.60;;;;;;;16.03;100.00;96018.31;1026163;28;20058;-70
2022/08/03 00:28:39;;;;;;;6.72;2.92;;;;;;;16.03;100.00;96013.03;1026381;28;20654;-70
2022/08/03 00:29:10;;;;;;;14.93;3.10;;;;;;;16.02;100.00;96014.09;1029799;28;20038;-71
2022/08/03 00:29:40;;;;;;;9.18;2.88;;;;;;;16.02;100.00;96020.16;1030076;28;20061;-70
2022/08/03 00:30:11;;;;;;;8.65;2.97;;;;;;;16.03;100.00;96018.31;1030194;28;20084;-70
2022/08/03 00:30:41;;;;;;;4.82;2.08;;;;;;;16.03;100.00;96020.97;1022001;28;20532;-70
2022/08/03 00:31:12;;;;;;;6.03;2.75;;;;;;;15.97;100.00;96011.53;1021548;28;20027;-70
2022/08/03 00:31:42;;;;;;;9.13;2.42;;;;;;;16.02;100.00;96019.38;1025902;28;20058;-70
2022/08/03 00:32:13;;;;;;;3.10;2.42;;;;;;;16.01;100.00;96009.88;1022153;28;20070;-69
2022/08/03 00:32:43;;;;;;;3.22;2.92;;;;;;;16.01;100.00;96020.47;1030267;28;20030;-70
2022/08/03 00:33:14;;;;;;;5.68;2.60;;;;;;;16.02;100.00;96024.69;1030298;28;20066;-70
2022/08/03 00:33:44;;;;;;;8.75;2.67;;;;;;;16.00;100.00;96021.56;1030223;28;20109;-71
2022/08/03 00:34:15;;;;;;;7.18;2.50;;;;;;;16.00;100.00;96016.25;1034161;28;20065;-70
2022/08/03 00:34:45;;;;;;;8.30;3.08;;;;;;;15.99;100.00;96019.97;1034303;28;20132;-69
2022/08/03 00:35:15;;;;;;;8.55;2.72;;;;;;;15.99;100.00;96015.44;1034291;28;20563;-69
2022/08/03 00:35:46;;;;;;;3.67;2.38;;;;;;;15.99;100.00;96014.66;1029626;28;20027;-70
2022/08/03 00:36:17;;;;;;;2.75;2.50;;;;;;;15.99;100.00;96019.97;1030235;28;20058;-70
2022/08/03 00:36:47;;;;;;;6.93;3.25;;;;;;;15.91;100.00;96007.41;1030180;28;20064;-71
2022/08/03 00:37:17;;;;;;;3.47;2.17;;;;;;;15.95;100.00;96017.09;1030151;28;20085;-69
2022/08/03 00:37:48;;;;;;;10.90;2.85;;;;;;;15.95;100.00;96011.03;1034014;28;20086;-70
2022/08/03 00:38:19;;;;;;;2.80;2.28;;;;;;;15.95;100.00;96013.69;1030215;28;20121;-70
2022/08/03 00:38:49;;;;;;;5.18;2.47;;;;;;;15.96;100.00;96010.75;1026129;28;20109;-71
2022/08/03 00:39:20;;;;;;;7.07;2.60;;;;;;;15.95;100.00;96019.75;1026060;28;20571;-71
2022/08/03 00:39:50;;;;;;;7.10;2.58;;;;;;;15.94;100.00;96015.53;1026073;28;20051;-72
2022/08/03 00:40:21;;;;;;;8.55;2.80;;;;;;;15.91;100.00;96005.53;1026192;28;20512;-70
2022/08/03 00:40:51;;;;;;;4.72;2.47;;;;;;;15.95;100.00;96016.31;1029972;28;20113;-70
2022/08/03 00:41:22;;;;;;;3.63;2.40;;;;;;;15.96;100.00;96012.59;1029526;28;20129;-71
2022/08/03 00:41:52;;;;;;;4.75;2.50;;;;;;;15.96;100.00;96009.94;1030041;28;20030;-70
2022/08/03 00:42:23;;;;;;;4.57;2.28;;;;;;;15.96;100.00;96005.47;1029063;28;20023;-69
2022/08/03 00:42:55;;;;;;;3.10;2.22;;;;;;;15.96;100.00;96012.59;1026146;28;20064;-71
2022/08/03 00:43:26;;;;;;;2.85;2.38;;;;;;;15.95;100.00;96003.09;1026211;28;20435;-70
2022/08/03 00:43:57;;;;;;;3.17;2.28;;;;;;;15.94;100.00;96007.59;1025852;28;20410;-72
2022/08/03 00:44:27;;;;;;;8.45;2.90;;;;;;;15.95;100.00;96008.38;1025957;28;20058;-70
2022/08/03 00:44:57;;;;;;;7.88;2.30;;;;;;;15.97;100.00;96006.25;1026369;28;20039;-70
2022/08/03 00:45:36;;;;;;;5.85;2.67;;;;;;;15.89;100.00;95999.72;1030181;28;20038;-71
2022/08/03 00:46:06;;;;;;;10.38;3.10;;;;;;;15.90;100.00;96005.84;1025752;28;20033;-71
2022/08/03 00:46:37;;;;;;;2.25;2.05;;;;;;;15.97;100.00;96011.53;1023252;28;20038;-69
2022/08/03 00:47:09;;;;;;;18.83;4.13;;;;;;;15.96;100.00;96004.66;1022030;29;20062;-70
2022/08/03 00:47:39;;;;;;;3.83;2.20;;;;;;;15.94;100.00;96006.81;1018513;29;20150;-70
2022/08/03 00:48:10;;;;;;;17.88;3.20;;;;;;;15.94;100.00;96012.13;1022164;28;20047;-70
2022/08/03 00:48:41;;;;;;;6.85;2.53;;;;;;;15.92;100.00;96006.31;1022578;28;20142;-69
2022/08/03 00:49:11;;;;;;;5.93;2.40;;;;;;;15.86;100.00;95996.88;1024716;28;20027;-71
2022/08/03 00:49:42;;;;;;;3.30;2.83;;;;;;;15.97;100.00;95998.31;1030279;28;20041;-69
2022/08/03 00:50:12;;;;;;;3.38;2.35;;;;;;;16.16;100.00;96009.63;1029956;28;20500;-70
2022/08/03 00:50:43;;;;;;;4.75;2.65;;;;;;;16.23;100.00;96004.75;1026277;28;20030;-70
2022/08/03 00:51:13;;;;;;;3.28;2.80;;;;;;;16.29;100.00;96007.28;1021470;29;20607;-70
2022/08/03 00:51:44;;;;;;;2.50;2.28;;;;;;;16.32;100.00;96010.13;1020679;29;20027;-69
2022/08/03 00:52:15;;;;;;;3.50;2.80;;;;;;;16.41;100.00;96002.31;1021973;28;20031;-70
2022/08/03 00:52:46;;;;;;;4.28;2.55;;;;;;;16.44;100.00;96004.38;1030025;28;20014;-69
2022/08/03 00:53:16;;;;;;;2.70;2.25;;;;;;;16.43;100.00;95997.50;1025973;28;20058;-69
2022/08/03 00:53:47;;;;;;;4.35;2.90;;;;;;;16.56;100.00;96011.81;1022344;28;20548;-71
2022/08/03 00:54:17;;;;;;;3.70;2.85;;;;;;;16.54;100.00;96009.47;1021824;29;20461;-71
2022/08/03 00:54:48;;;;;;;4.15;2.65;;;;;;;16.54;100.00;96009.47;1022250;28;20050;-70
2022/08/03 00:55:18;;;;;;;8.43;2.88;;;;;;;16.52;100.00;96008.97;1026232;28;20038;-70
2022/08/03 00:55:49;;;;;;;3.58;2.65;;;;;;;16.51;100.00;96007.41;1030110;28;20538;-71
2022/08/03 00:56:19;;;;;;;6.38;2.78;;;;;;;16.49;100.00;96005.03;1025908;28;20578;-69
2022/08/03 00:56:50;;;;;;;3.88;2.70;;;;;;;16.53;100.00;96009.75;1026207;28;20035;-69
2022/08/03 00:57:20;;;;;;;4.32;2.80;;;;;;;16.53;100.00;96007.13;1026094;28;20023;-70
2022/08/03 00:57:51;;;;;;;6.53;2.83;;;;;;;16.51;100.00;96007.41;1026063;28;20030;-70
2022/08/03 00:58:22;;;;;;;5.03;3.00;;;;;;;16.50;100.00;96009.28;1029910;28;20030;-69
2022/08/03 00:58:53;;;;;;;2.83;2.60;;;;;;;16.53;100.00;96001.81;1030368;28;20022;-71
2022/08/03 00:59:23;;;;;;;3.63;2.65;;;;;;;16.57;100.00;96002.81;1033142;28;20626;-69
2022/08/03 00:59:54;;;;;;;6.03;2.67;;;;;;;16.54;100.00;95998.09;1026064;28;20015;-70
2022/08/03 01:00:25;;;;;;;3.35;2.58;;;;;;;16.60;100.00;96000.38;1025951;28;20046;-72
2022/08/03 01:00:56;;;;;;;3.10;2.55;;;;;;;16.62;100.00;96003.50;1014115;28;20024;-69
2022/08/03 01:01:29;;;;;;;5.20;2.83;;;;;;;16.61;100.00;96003.78;1017870;29;20036;-71
2022/08/03 01:01:59;;;;;;;3.80;2.60;;;;;;;16.59;100.00;96004.06;1022040;29;20702;-70
2022/08/03 01:02:30;;;;;;;2.70;2.47;;;;;;;16.57;100.00;96000.94;1023373;28;20263;-69
2022/08/03 01:03:01;;;;;;;3.75;2.60;;;;;;;16.51;100.00;95996.81;1025920;28;20029;-70
2022/08/03 01:03:31;;;;;;;3.65;2.90;;;;;;;16.58;100.00;96002.50;1026185;28;20027;-70
2022/08/03 01:04:02;;;;;;;4.53;3.00;;;;;;;16.57;100.00;96002.81;1026199;28;20066;-69
2022/08/03 01:04:32;;;;;;;3.10;2.72;;;;;;;16.61;100.00;95993.19;1026037;28;20034;-71
2022/08/03 01:05:03;;;;;;;4.72;2.88;;;;;;;16.61;100.00;95999.28;1030140;28;20436;-70
2022/08/03 01:05:44;;;;;;;5.22;3.15;;;;;;;16.56;100.00;95990.63;1033931;28;20030;-71
2022/08/03 01:06:17;;;;;;;2.63;2.42;;;;;;;16.54;100.00;95988.28;1029950;28;20026;-71
2022/08/03 01:06:56;;;;;;;4.10;2.75;;;;;;;16.64;100.00;95998.69;1025860;28;20431;-71
2022/08/03 01:07:30;;;;;;;5.35;2.83;;;;;;;16.44;100.00;95969.94;1026035;28;20062;-70
2022/08/03 01:08:35;;;;;;;3.40;2.85;;;;;;;16.65;100.00;96002.13;1028955;28;20114;-70
2022/08/03 01:09:15;;;;;;;2.75;1.98;;;;;;;16.59;100.00;95987.41;1025562;28;20118;-71
2022/08/03 01:10:23;;;;;;;3.53;2.90;;;;;;;16.64;100.00;95998.69;1024720;28;20089;-70
2022/08/03 01:11:03;;;;;;;3.17;2.47;;;;;;;16.62;100.00;95997.41;1030014;28;20830;-74
2022/08/03 01:11:50;;;;;;;3.95;2.63;;;;;;;16.60;100.00;96007.50;1032040;28;20041;-69
2022/08/03 01:12:31;;;;;;;5.15;2.55;;;;;;;16.56;100.00;95996.72;1030105;28;20034;-70
2022/08/03 01:13:05;;;;;;;2.75;2.47;;;;;;;16.53;100.00;95989.34;1025769;28;20081;-70
2022/08/03 01:14:07;;;;;;;2.55;2.35;;;;;;;16.55;100.00;95999.66;1026080;28;20093;-71
2022/08/03 01:14:58;;;;;;;5.65;2.72;;;;;;;16.45;100.00;95987.41;1029545;28;20036;-71
2022/08/03 01:15:52;;;;;;;3.15;2.85;;;;;;;16.34;100.00;95972.78;1033005;28;20681;-70
2022/08/03 01:16:29;;;;;;;3.17;2.55;;;;;;;16.53;100.00;96001.81;1033910;28;20080;-70
2022/08/03 01:17:42;;;;;;;4.10;2.60;;;;;;;16.54;100.00;96004.19;1029974;28;20034;-70
2022/08/03 01:18:17;;;;;;;7.53;2.80;;;;;;;16.48;100.00;95994.75;1021501;29;20023;-70
2022/08/03 01:19:10;;;;;;;6.28;3.10;;;;;;;16.45;100.00;96000.63;1026486;28;20038;-71
2022/08/03 01:19:44;;;;;;;3.90;3.10;;;;;;;16.41;100.00;96000.44;1030154;28;20022;-70
2022/08/03 01:20:14;;;;;;;6.65;3.17;;;;;;;16.34;100.00;95991.31;1025795;28;20034;-72
2022/08/03 01:20:47;;;;;;;6.07;2.80;;;;;;;16.33;100.00;95997.66;1022129;29;20027;-69
2022/08/03 01:21:38;;;;;;;6.43;2.88;;;;;;;16.33;100.00;95998.47;1009357;29;20108;-72
2022/08/03 01:22:33;;;;;;;9.25;3.17;;;;;;;16.27;100.00;95992.47;1015784;29;20016;-70
2022/08/03 01:23:31;;;;;;;17.05;3.55;;;;;;;16.24;100.00;95998.38;1021837;28;20020;-70
2022/08/03 01:24:24;;;;;;;8.25;3.13;;;;;;;16.17;100.00;95992.66;1029541;28;20015;-70
2022/08/03 01:25:46;;;;;;;4.90;3.08;;;;;;;16.14;100.00;96001.19;1027372;28;20073;-70
2022/08/03 01:26:41;;;;;;;3.80;2.70;;;;;;;16.11;100.00;96000.97;1025786;28;20789;-70
2022/08/03 01:27:14;;;;;;;8.77;3.40;;;;;;;16.02;100.00;95987.63;1026320;28;20050;-71
2022/08/03 01:28:20;;;;;;;4.25;2.50;;;;;;;16.03;100.00;95982.06;1034006;28;20118;-70
2022/08/03 01:29:15;;;;;;;19.42;3.47;;;;;;;16.08;100.00;95997.06;1029997;28;20036;-72
2022/08/03 01:30:08;;;;;;;6.05;2.65;;;;;;;16.10;100.00;95994.91;1029871;28;20678;-70
2022/08/03 01:30:39;;;;;;;7.38;3.63;;;;;;;16.07;100.00;95995.50;1029453;28;20564;-71
2022/08/03 01:31:10;;;;;;;9.82;3.03;;;;;;;16.08;100.00;95997.06;1025473;28;20524;-71
2022/08/03 01:31:43;;;;;;;4.75;3.08;;;;;;;16.04;100.00;95990.78;1017905;29;20030;-70
2022/08/03 01:32:19;;;;;;;4.20;2.60;;;;;;;16.08;100.00;96001.56;1021876;29;20406;-70
2022/08/03 01:32:56;;;;;;;3.88;2.40;;;;;;;16.07;100.00;96003.44;1026117;28;20378;-70
2022/08/03 01:33:38;;;;;;;6.22;2.72;;;;;;;16.13;100.00;95996.16;1026029;28;20552;-73
2022/08/03 01:34:10;;;;;;;2.22;2.03;;;;;;;16.10;100.00;95983.53;1024946;28;20030;-73
2022/08/03 01:34:44;;;;;;;3.65;2.60;;;;;;;16.20;100.00;95994.72;1021006;29;20106;-70
2022/08/03 01:35:16;;;;;;;2.45;2.08;;;;;;;16.23;100.00;95993.34;1022083;29;20047;-72
2022/08/03 01:36:02;;;;;;;3.42;2.30;;;;;;;16.27;100.00;95997.78;1024232;28;20035;-72
2022/08/03 01:36:35;;;;;;;2.70;2.40;;;;;;;16.10;100.00;95975.59;1022092;29;20085;-71
2022/08/03 01:37:05;;;;;;;5.47;2.75;;;;;;;16.24;100.00;95995.72;1022012;28;20130;-70
2022/08/03 01:37:57;;;;;;;2.40;1.90;;;;;;;16.28;100.00;95990.63;1026016;28;20080;-70
2022/08/03 01:38:35;;;;;;;4.60;2.15;;;;;;;16.32;100.00;95993.47;1028965;28;20550;-70
2022/08/03 01:39:08;;;;;;;3.05;2.40;;;;;;;16.33;100.00;95989.72;1025889;28;20078;-71
2022/08/03 01:39:38;;;;;;;4.03;2.00;;;;;;;16.35;100.00;95990.22;1026137;28;20027;-72
2022/08/03 01:40:09;;;;;;;2.05;1.85;;;;;;;16.35;100.00;95998.19;1025932;28;20066;-72
2022/08/03 01:40:41;;;;;;;4.22;2.10;;;;;;;16.33;100.00;95987.09;1022446;28;20023;-70
2022/08/03 01:41:14;;;;;;;4.57;2.28;;;;;;;16.29;100.00;95991.41;1017508;29;20043;-71
2022/08/03 01:41:59;;;;;;;4.50;2.20;;;;;;;16.22;100.00;95981.97;1026030;28;20134;-71
2022/08/03 01:42:30;;;;;;;3.88;2.33;;;;;;;16.32;100.00;95988.16;1025741;28;20035;-70
2022/08/03 01:43:01;;;;;;;4.03;2.30;;;;;;;16.34;100.00;95993.97;1023472;28;20026;-70
2022/08/03 01:43:31;;;;;;;4.10;2.30;;;;;;;16.32;100.00;95990.81;1023902;28;20054;-70
2022/08/03 01:44:02;;;;;;;2.15;1.90;;;;;;;16.34;100.00;95989.44;1021826;29;20098;-70
2022/08/03 01:44:36;;;;;;;3.20;2.17;;;;;;;16.31;100.00;95982.09;1021809;28;20034;-71
2022/08/03 01:45:07;;;;;;;5.05;2.33;;;;;;;16.33;100.00;95979.13;1014165;29;20535;-70
2022/08/03 01:45:38;;;;;;;5.07;2.33;;;;;;;16.28;100.00;95977.38;1017986;29;20050;-71
2022/08/03 01:46:08;;;;;;;2.00;1.80;;;;;;;16.36;100.00;95986.50;1025767;28;20030;-72
2022/08/03 01:46:39;;;;;;;2.67;2.28;;;;;;;16.36;100.00;95981.19;1021891;28;20030;-70
2022/08/03 01:47:09;;;;;;;4.25;2.38;;;;;;;16.31;100.00;95989.25;1018081;29;20097;-71
2022/08/03 01:47:40;;;;;;;3.70;2.38;;;;;;;16.33;100.00;95987.09;1021801;29;20449;-70
2022/08/03 01:48:11;;;;;;;3.83;2.17;;;;;;;16.25;100.00;95978.75;1021910;28;20078;-70
2022/08/03 01:48:42;;;;;;;2.13;1.92;;;;;;;16.27;100.00;95989.84;1021806;29;20023;-71
2022/08/03 01:49:13;;;;;;;3.72;2.40;;;;;;;16.18;100.00;95973.03;1016683;29;20960;-72
2022/08/03 01:49:43;;;;;;;2.67;2.05;;;;;;;16.22;100.00;95976.66;1014323;29;20024;-71
2022/08/03 01:50:14;;;;;;;3.97;2.28;;;;;;;16.21;100.00;95985.69;1018127;29;20778;-70
2022/08/03 01:50:45;;;;;;;2.47;2.15;;;;;;;16.14;100.00;95969.41;1018000;29;20031;-71
2022/08/03 01:51:16;;;;;;;3.60;2.20;;;;;;;16.17;100.00;95976.00;1029168;28;20054;-69
2022/08/03 01:51:47;;;;;;;4.97;2.65;;;;;;;16.14;100.00;95973.94;1018253;29;20016;-71
2022/08/03 01:52:18;;;;;;;4.25;2.15;;;;;;;16.15;100.00;95981.56;1012515;29;20104;-72
2022/08/03 01:52:48;;;;;;;4.35;2.33;;;;;;;16.11;100.00;95982.44;1020397;28;20488;-70
2022/08/03 01:53:19;;;;;;;5.40;2.33;;;;;;;16.05;100.00;95976.44;1026046;28;20049;-70
2022/08/03 01:53:50;;;;;;;2.47;2.17;;;;;;;16.07;100.00;95984.91;1018101;29;20107;-71
2022/08/03 01:54:20;;;;;;;2.08;1.88;;;;;;;16.04;100.00;95974.88;1022225;29;20027;-71
2022/08/03 01:54:51;;;;;;;2.42;2.20;;;;;;;16.02;100.00;95977.81;1018720;29;20035;-70
2022/08/03 01:55:21;;;;;;;5.03;2.45;;;;;;;15.99;100.00;95985.56;1018872;29;20090;-70
2022/08/03 01:55:53;;;;;;;3.28;2.00;;;;;;;15.88;100.00;95974.34;1018692;29;20024;-71
2022/08/03 01:56:23;;;;;;;2.50;2.30;;;;;;;15.91;100.00;95980.94;1022829;29;20624;-70
2022/08/03 01:56:54;;;;;;;5.25;2.40;;;;;;;15.85;100.00;95972.28;1022683;29;20019;-71
2022/08/03 01:57:24;;;;;;;3.60;2.17;;;;;;;15.90;100.00;95982.03;1026790;28;20696;-70
2022/08/03 01:57:55;;;;;;;2.45;2.17;;;;;;;15.84;100.00;95975.22;1026609;28;20097;-71
2022/08/03 01:58:26;;;;;;;4.82;2.25;;;;;;;15.88;100.00;95986.81;1022914;28;20023;-71
2022/08/03 01:58:56;;;;;;;8.35;2.45;;;;;;;15.85;100.00;95984.72;1026652;28;20050;-72
2022/08/03 01:59:26;;;;;;;8.40;2.72;;;;;;;15.83;100.00;95978.94;1022617;29;20023;-70
2022/08/03 01:59:57;;;;;;;10.43;2.55;;;;;;;15.85;100.00;95987.38;1019032;29;20027;-72
2022/08/03 02:00:28;;;;;;;5.10;2.55;;;;;;;15.83;100.00;95986.88;1018887;29;20869;-72
2022/08/03 02:00:59;;;;;;;3.83;2.65;;;;;;;15.81;100.00;95991.69;1018833;29;20064;-71
2022/08/03 02:01:30;;;;;;;5.25;2.08;;;;;;;15.79;100.00;95984.84;1018466;29;20108;-70
2022/08/03 02:02:00;;;;;;;6.40;2.45;;;;;;;15.77;100.00;95984.31;1023048;28;20450;-70
2022/08/03 02:02:31;;;;;;;7.45;2.90;;;;;;;15.78;100.00;95987.75;1026686;28;20043;-70
2022/08/03 02:03:06;;;;;;;2.95;2.60;;;;;;;15.76;100.00;95990.69;1029557;28;20034;-72
2022/08/03 02:03:38;;;;;;;5.82;2.45;;;;;;;15.66;100.00;95974.16;1030796;28;20019;-70
2022/08/03 02:04:08;;;;;;;4.85;2.20;;;;;;;15.67;100.00;95981.06;1026777;28;20022;-73
2022/08/03 02:04:40;;;;;;;7.38;2.65;;;;;;;15.72;100.00;95994.19;1026673;28;20086;-70
2022/08/03 02:05:10;;;;;;;4.57;2.15;;;;;;;15.69;100.00;95987.63;1026700;28;20027;-71
2022/08/03 02:05:41;;;;;;;11.48;2.20;;;;;;;15.68;100.00;95985.25;1022970;28;20577;-71
2022/08/03 02:06:12;;;;;;;6.10;2.70;;;;;;;15.67;100.00;95992.41;1023569;28;20043;-71
2022/08/03 02:06:42;;;;;;;3.67;2.60;;;;;;;15.60;100.00;95986.69;1018772;29;20469;-72
2022/08/03 02:07:13;;;;;;;6.82;2.78;;;;;;;15.64;100.00;95992.19;1022652;28;20034;-70
2022/08/03 02:07:44;;;;;;;9.10;2.97;;;;;;;15.63;100.00;95995.91;1026790;28;20532;-69
2022/08/03 02:08:14;;;;;;;6.82;2.60;;;;;;;15.60;100.00;95997.28;1022627;28;20055;-74
2022/08/03 02:08:45;;;;;;;7.22;2.65;;;;;;;15.58;100.00;95988.81;1009406;29;20407;-71
2022/08/03 02:09:15;;;;;;;5.53;2.55;;;;;;;15.58;100.00;95988.81;1018758;29;20032;-70
2022/08/03 02:09:48;;;;;;;5.70;2.75;;;;;;;15.51;100.00;95983.13;1024446;28;20026;-71
2022/08/03 02:10:19;;;;;;;8.18;3.08;;;;;;;15.58;100.00;95999.41;1018693;29;20024;-70
2022/08/03 02:10:50;;;;;;;11.63;2.75;;;;;;;15.56;100.00;95985.69;1015114;29;20621;-71
2022/08/03 02:11:20;;;;;;;8.02;2.75;;;;;;;15.57;100.00;95995.19;1013785;29;20080;-70
2022/08/03 02:11:51;;;;;;;10.48;2.97;;;;;;;15.55;100.00;95992.03;1015298;29;20064;-70
2022/08/03 02:12:23;;;;;;;9.10;2.47;;;;;;;15.55;100.00;95994.69;1022883;28;20034;-71
2022/08/03 02:12:53;;;;;;;6.68;2.35;;;;;;;15.53;100.00;95986.28;1022974;28;20664;-73
2022/08/03 02:13:24;;;;;;;11.05;2.65;;;;;;;15.54;100.00;95988.63;1022412;29;20035;-71
2022/08/03 02:13:54;;;;;;;3.92;2.40;;;;;;;15.48;100.00;95983.69;1014961;29;20891;-70
2022/08/03 02:14:25;;;;;;;14.02;3.28;;;;;;;15.51;100.00;95993.69;1023190;29;20058;-71
2022/08/03 02:14:56;;;;;;;5.85;2.75;;;;;;;15.52;100.00;95993.41;1022725;28;20055;-73
2022/08/03 02:15:26;;;;;;;2.40;2.03;;;;;;;15.51;100.00;95993.69;1022855;29;20038;-72
2022/08/03 02:15:57;;;;;;;3.35;2.60;;;;;;;15.50;100.00;95992.13;1023269;28;20102;-69
2022/08/03 02:16:27;;;;;;;9.70;2.55;;;;;;;15.50;100.00;95995.56;1027099;28;20030;-69
2022/08/03 02:16:58;;;;;;;8.27;2.38;;;;;;;15.51;100.00;95991.84;1023403;29;20019;-72
2022/08/03 02:17:29;;;;;;;8.65;2.38;;;;;;;15.51;100.00;95998.97;1023286;29;20058;-70
2022/08/03 02:17:59;;;;;;;4.03;2.42;;;;;;;15.48;100.00;95999.56;1015228;29;20066;-71
2022/08/03 02:18:31;;;;;;;5.07;2.20;;;;;;;15.40;100.00;95989.63;1019395;28;20038;-73
2022/08/03 02:19:03;;;;;;;4.90;2.10;;;;;;;15.42;100.00;95993.53;1019150;29;20888;-71
2022/08/03 02:19:34;;;;;;;2.45;2.25;;;;;;;15.38;100.00;95991.78;1019141;29;20418;-72
2022/08/03 02:20:05;;;;;;;12.48;2.90;;;;;;;15.40;100.00;95998.34;1023288;29;20023;-72
2022/08/03 02:20:37;;;;;;;3.15;2.40;;;;;;;15.38;100.00;95994.41;1027164;28;20023;-72
2022/08/03 02:21:09;;;;;;;4.38;2.35;;;;;;;15.37;100.00;96001.56;1023196;29;20019;-70
2022/08/03 02:21:39;;;;;;;6.72;2.97;;;;;;;15.30;100.00;95986.06;1027400;28;20042;-70
2022/08/03 02:22:10;;;;;;;7.38;3.28;;;;;;;15.37;100.00;95998.13;1027410;28;20031;-72
2022/08/03 02:22:42;;;;;;;5.78;2.88;;;;;;;15.38;100.00;95994.41;1019602;29;20064;-72
2022/08/03 02:23:15;;;;;;;2.97;2.63;;;;;;;15.36;100.00;95991.25;1020075;29;20020;-72
2022/08/03 02:23:46;;;;;;;5.22;2.50;;;;;;;15.36;100.00;95999.19;1023230;28;20435;-72
2022/08/03 02:24:16;;;;;;;15.45;3.53;;;;;;;15.35;100.00;95989.69;1026078;28;20050;-71
2022/08/03 02:24:48;;;;;;;8.02;2.85;;;;;;;15.26;100.00;95990.34;1018809;29;20513;-69
2022/08/03 02:25:18;;;;;;;8.85;2.95;;;;;;;15.30;100.00;95994.00;1014806;29;20083;-72
2022/08/03 02:25:54;;;;;;;10.07;2.90;;;;;;;15.24;100.00;95979.25;1020444;28;20038;-71
2022/08/03 02:26:27;;;;;;;4.88;2.80;;;;;;;15.31;100.00;95997.41;1013850;29;20591;-71
2022/08/03 02:26:58;;;;;;;3.70;2.45;;;;;;;15.30;100.00;95999.28;1017451;29;20085;-70
2022/08/03 02:27:28;;;;;;;5.28;2.67;;;;;;;15.29;100.00;95999.53;1014631;29;20575;-71
2022/08/03 02:28:03;;;;;;;4.20;2.45;;;;;;;15.21;100.00;95984.34;1019728;28;20024;-71
2022/08/03 02:28:36;;;;;;;9.60;2.70;;;;;;;15.23;100.00;95988.28;1023434;28;20731;-71
2022/08/03 02:29:19;;;;;;;4.07;2.60;;;;;;;15.30;100.00;95991.34;1020055;29;20034;-72
2022/08/03 02:29:55;;;;;;;4.38;2.53;;;;;;;15.37;100.00;95992.84;1017066;29;20028;-72
2022/08/03 02:30:29;;;;;;;16.00;3.22;;;;;;;15.37;100.00;95987.56;1022790;28;20030;-71
2022/08/03 02:30:59;;;;;;;7.05;3.28;;;;;;;15.41;100.00;95993.84;1027432;28;20491;-71
2022/08/03 02:31:31;;;;;;;3.65;2.40;;;;;;;15.47;100.00;95995.34;1022904;29;20054;-71
2022/08/03 02:32:03;;;;;;;2.75;2.53;;;;;;;15.48;100.00;95994.25;1015621;29;20475;-70
2022/08/03 02:32:35;;;;;;;4.60;2.53;;;;;;;15.50;100.00;95992.13;1019771;29;20525;-71
2022/08/03 02:33:09;;;;;;;4.85;2.90;;;;;;;15.52;100.00;95989.97;1024269;28;20082;-71
2022/08/03 02:33:46;;;;;;;4.85;2.70;;;;;;;15.52;100.00;95992.63;1024674;28;20019;-72
2022/08/03 02:34:17;;;;;;;5.75;2.65;;;;;;;15.52;100.00;95993.41;1027215;28;20519;-71